Time;durP1;ratioP1;P1;durP2;ratioP2;P2;SDS_P1;SDS_P2;PMS_P1;PMS_P2;Temp;Humidity;BMP_temperature;BMP_pressure;BME280_temperature;BME280_humidity;BME280_pressure;Samples;Min_cycle;Max_cycle;Signal;HPM_P1;HPM_P2
2023/01/01 00:01:54;;;;;;;0.10;0.10;;;;;;;;;;6169799;23;20099;-80
2023/01/01 00:04:20;;;;;;;0.80;0.80;;;;;;;;;;6197112;23;20317;-83
2023/01/01 00:06:46;;;;;;;1.58;1.48;;;;;;;;;;6173311;23;20453;-83
2023/01/01 00:11:57;;;;;;;0.20;0.20;;;;;;;;;;6169543;23;20024;-80
2023/01/01 00:14:23;;;;;;;0.30;0.30;;;;;;;;;;6171453;23;20047;-80
2023/01/01 00:16:49;;;;;;;3.30;2.28;;;;;;;;;;6170330;23;20339;-82
2023/01/01 00:19:15;;;;;;;5.40;3.42;;;;;;;;;;6171969;23;20099;-81
2023/01/01 00:21:41;;;;;;;0.28;0.28;;;;;;;;;;6171276;23;20393;-82
2023/01/01 00:24:08;;;;;;;5.88;2.80;;;;;;;;;;6172328;23;20118;-84
2023/01/01 00:26:34;;;;;;;0.20;0.20;;;;;;;;;;6172958;23;20021;-82
2023/01/01 00:29:00;;;;;;;2.40;2.20;;;;;;;;;;6170925;23;20059;-83
2023/01/01 00:31:26;;;;;;;1.50;1.40;;;;;;;;;;6171113;23;20056;-82
2023/01/01 00:33:53;;;;;;;3.97;2.90;;;;;;;;;;6173236;23;20017;-82
2023/01/01 00:36:20;;;;;;;2.25;2.15;;;;;;;;;;6173115;23;20012;-80
2023/01/01 00:38:47;;;;;;;1.50;1.40;;;;;;;;;;6171949;23;20017;-82
2023/01/01 00:41:13;;;;;;;0.20;0.20;;;;;;;;;;6174093;23;20013;-84
2023/01/01 00:43:39;;;;;;;0.75;0.75;;;;;;;;;;6172766;23;20039;-83
2023/01/01 00:46:06;;;;;;;0.60;0.60;;;;;;;;;;6172803;23;20028;-84
2023/01/01 00:48:32;;;;;;;2.17;1.48;;;;;;;;;;6172234;23;20108;-85
2023/01/01 00:50:58;;;;;;;2.17;1.85;;;;;;;;;;6174504;23;20017;-83
2023/01/01 00:53:24;;;;;;;1.10;1.00;;;;;;;;;;6174781;23;20586;-82
2023/01/01 00:55:55;;;;;;;0.80;0.77;;;;;;;;;;6175661;23;20075;-85
2023/01/01 00:58:21;;;;;;;4.63;4.10;;;;;;;;;;6170557;23;20021;-83
2023/01/01 01:00:47;;;;;;;0.22;0.22;;;;;;;;;;6175536;23;20458;-84
2023/01/01 01:03:26;;;;;;;0.10;0.10;;;;;;;;;;6172767;23;20124;-83
2023/01/01 01:05:56;;;;;;;0.73;0.73;;;;;;;;;;6174546;23;20118;-84
2023/01/01 01:08:22;;;;;;;1.55;1.48;;;;;;;;;;6173951;23;20013;-84
2023/01/01 01:10:48;;;;;;;5.38;3.05;;;;;;;;;;6173981;23;20024;-85
2023/01/01 01:13:15;;;;;;;4.85;3.13;;;;;;;;;;6173252;23;20430;-86
2023/01/01 01:15:41;;;;;;;4.88;2.65;;;;;;;;;;6173009;23;20028;-84
2023/01/01 01:18:07;;;;;;;4.22;3.83;;;;;;;;;;6175189;23;20378;-83
2023/01/01 01:20:33;;;;;;;0.52;0.52;;;;;;;;;;6171757;23;20013;-84
2023/01/01 01:22:59;;;;;;;0.90;0.90;;;;;;;;;;6175944;23;20448;-85
2023/01/01 01:25:25;;;;;;;0.20;0.20;;;;;;;;;;6173915;23;20151;-85
2023/01/01 01:27:51;;;;;;;0.82;0.82;;;;;;;;;;6177576;23;20023;-84
2023/01/01 01:30:17;;;;;;;4.25;1.27;;;;;;;;;;6177220;23;20019;-83
2023/01/01 01:32:43;;;;;;;0.68;0.68;;;;;;;;;;6180535;23;20035;-83
2023/01/01 01:35:10;;;;;;;0.45;0.45;;;;;;;;;;6182480;23;20473;-85
2023/01/01 01:37:36;;;;;;;1.75;1.65;;;;;;;;;;6179016;23;20035;-85
2023/01/01 01:40:02;;;;;;;2.17;0.88;;;;;;;;;;6173073;23;20016;-85
2023/01/01 01:42:28;;;;;;;1.95;0.95;;;;;;;;;;6170620;23;20017;-85
2023/01/01 01:44:56;;;;;;;1.85;1.42;;;;;;;;;;6116853;23;20103;-84
2023/01/01 01:47:28;;;;;;;1.85;1.75;;;;;;;;;;6116941;23;20017;-87
2023/01/01 01:49:59;;;;;;;0.60;0.60;;;;;;;;;;6115804;23;20032;-85
2023/01/01 01:52:26;;;;;;;0.52;0.52;;;;;;;;;;6116474;23;20028;-84
2023/01/01 01:54:52;;;;;;;1.25;1.25;;;;;;;;;;6115563;23;20009;-83
2023/01/01 01:57:18;;;;;;;0.85;0.85;;;;;;;;;;6115090;23;20032;-84
2023/01/01 01:59:48;;;;;;;2.28;1.67;;;;;;;;;;6136538;23;20112;-82
2023/01/01 02:02:34;;;;;;;2.47;2.17;;;;;;;;;;6138806;23;20017;-83
2023/01/01 02:05:00;;;;;;;0.50;0.50;;;;;;;;;;6115794;23;20121;-82
2023/01/01 02:07:27;;;;;;;0.55;0.55;;;;;;;;;;6140002;23;20451;-82
2023/01/01 02:09:54;;;;;;;0.40;0.40;;;;;;;;;;6138952;23;20426;-83
2023/01/01 02:12:20;;;;;;;0.40;0.40;;;;;;;;;;6138504;23;20119;-82
2023/01/01 02:14:46;;;;;;;3.08;2.88;;;;;;;;;;6137875;23;20017;-82
2023/01/01 02:17:21;;;;;;;0.17;0.17;;;;;;;;;;6137601;23;20401;-82
2023/01/01 02:20:00;;;;;;;1.70;1.60;;;;;;;;;;6118018;23;20016;-86
2023/01/01 02:22:43;;;;;;;0.82;0.50;;;;;;;;;;6118852;23;20092;-83
2023/01/01 02:25:12;;;;;;;2.03;1.80;;;;;;;;;;6142383;23;20072;-87
2023/01/01 02:28:08;;;;;;;3.50;1.75;;;;;;;;;;6119039;23;20035;-86
2023/01/01 02:30:35;;;;;;;0.10;0.10;;;;;;;;;;6093006;23;20060;-87
2023/01/01 02:33:04;;;;;;;2.05;1.95;;;;;;;;;;6118640;23;20449;-86
2023/01/01 02:35:33;;;;;;;1.00;0.98;;;;;;;;;;6119787;23;20017;-86
2023/01/01 02:38:02;;;;;;;1.75;1.65;;;;;;;;;;6120026;23;20013;-86
2023/01/01 02:40:28;;;;;;;1.08;1.08;;;;;;;;;;6120444;23;20467;-86
2023/01/01 02:42:55;;;;;;;2.30;2.10;;;;;;;;;;6143555;23;20119;-86
2023/01/01 02:45:21;;;;;;;1.17;0.95;;;;;;;;;;6168902;23;20024;-86
2023/01/01 02:47:47;;;;;;;0.13;0.13;;;;;;;;;;6171390;23;20044;-87
2023/01/01 02:50:13;;;;;;;1.60;1.58;;;;;;;;;;6170993;23;20408;-85
2023/01/01 02:52:45;;;;;;;0.30;0.30;;;;;;;;;;6145560;23;20043;-86
2023/01/01 02:55:26;;;;;;;4.03;1.27;;;;;;;;;;6168891;23;20453;-86
2023/01/01 03:00:58;;;;;;;0.22;0.22;;;;;;;;;;6168728;23;20471;-86
2023/01/01 03:03:41;;;;;;;0.50;0.50;;;;;;;;;;6170510;23;20476;-86
2023/01/01 03:06:25;;;;;;;0.40;0.40;;;;;;;;;;6170559;23;20024;-85
2023/01/01 03:08:55;;;;;;;0.40;0.40;;;;;;;;;;6145418;23;20060;-85
2023/01/01 03:11:22;;;;;;;0.43;0.43;;;;;;;;;;6143653;23;20070;-86
2023/01/01 03:14:00;;;;;;;0.17;0.17;;;;;;;;;;6170270;23;20089;-87
2023/01/01 03:16:29;;;;;;;1.05;0.75;;;;;;;;;;6145620;23;20115;-86
2023/01/01 03:19:09;;;;;;;0.25;0.25;;;;;;;;;;6145651;23;20020;-84
2023/01/01 03:21:55;;;;;;;0.13;0.13;;;;;;;;;;6169362;23;20025;-85
2023/01/01 03:24:29;;;;;;;0.40;0.40;;;;;;;;;;6150012;23;20048;-85
2023/01/01 03:26:57;;;;;;;0.40;0.40;;;;;;;;;;6140967;23;20075;-87
2023/01/01 03:29:25;;;;;;;1.23;1.13;;;;;;;;;;6169958;23;20021;-86
2023/01/01 03:31:52;;;;;;;0.10;0.10;;;;;;;;;;6170024;23;20032;-86
2023/01/01 03:34:21;;;;;;;0.17;0.17;;;;;;;;;;6170578;23;20460;-86
2023/01/01 03:36:50;;;;;;;0.90;0.90;;;;;;;;;;6170871;23;20013;-87
2023/01/01 03:39:24;;;;;;;0.10;0.10;;;;;;;;;;6169723;23;20424;-86
2023/01/01 03:41:53;;;;;;;0.10;0.10;;;;;;;;;;6145570;23;20059;-86
2023/01/01 03:44:56;;;;;;;0.10;0.10;;;;;;;;;;6169967;23;20476;-86
2023/01/01 03:47:23;;;;;;;0.10;0.10;;;;;;;;;;6031001;23;20469;-88
2023/01/01 03:49:49;;;;;;;0.63;0.63;;;;;;;;;;6146085;23;20025;-86
2023/01/01 03:52:27;;;;;;;1.08;1.08;;;;;;;;;;6170276;23;20028;-86
2023/01/01 03:55:09;;;;;;;0.17;0.17;;;;;;;;;;6146830;23;20130;-88
2023/01/01 03:57:39;;;;;;;0.10;0.10;;;;;;;;;;6171907;23;20027;-86
2023/01/01 04:00:07;;;;;;;0.32;0.32;;;;;;;;;;6146662;23;20025;-86
2023/01/01 04:02:39;;;;;;;0.10;0.10;;;;;;;;;;6146551;23;20017;-86
2023/01/01 04:05:08;;;;;;;1.17;0.50;;;;;;;;;;6147808;23;20025;-84
2023/01/01 04:07:35;;;;;;;0.10;0.10;;;;;;;;;;6173170;23;20091;-87
2023/01/01 04:10:15;;;;;;;8.60;2.10;;;;;;;;;;6146471;23;20014;-87
2023/01/01 04:12:42;;;;;;;0.10;0.10;;;;;;;;;;6147315;23;20470;-88
2023/01/01 04:15:09;;;;;;;0.10;0.10;;;;;;;;;;6172496;23;20012;-87
2023/01/01 04:17:35;;;;;;;0.10;0.10;;;;;;;;;;6173025;23;20100;-86
2023/01/01 04:20:02;;;;;;;0.10;0.10;;;;;;;;;;6171694;23;20017;-86
2023/01/01 04:22:28;;;;;;;0.10;0.10;;;;;;;;;;6171662;23;20407;-88
2023/01/01 04:24:54;;;;;;;0.10;0.10;;;;;;;;;;6171929;23;20344;-88
2023/01/01 04:27:20;;;;;;;0.10;0.10;;;;;;;;;;6147112;23;20536;-87
2023/01/01 04:29:46;;;;;;;0.10;0.10;;;;;;;;;;6146389;23;20020;-86
2023/01/01 04:32:12;;;;;;;0.10;0.10;;;;;;;;;;6148509;23;20059;-87
2023/01/01 04:34:38;;;;;;;0.10;0.10;;;;;;;;;;6146954;23;20017;-87
2023/01/01 04:37:05;;;;;;;0.28;0.28;;;;;;;;;;6146849;23;20140;-86
2023/01/01 04:39:31;;;;;;;0.50;0.35;;;;;;;;;;6171279;23;20017;-86
2023/01/01 04:41:57;;;;;;;1.10;0.95;;;;;;;;;;6170220;23;20426;-87
2023/01/01 04:44:23;;;;;;;0.10;0.10;;;;;;;;;;6171617;23;20099;-86
2023/01/01 04:46:49;;;;;;;1.02;1.02;;;;;;;;;;6146286;23;20539;-85
2023/01/01 04:49:15;;;;;;;0.43;0.40;;;;;;;;;;6173832;23;20017;-86
2023/01/01 04:51:41;;;;;;;0.10;0.10;;;;;;;;;;6169353;23;20020;-85
2023/01/01 04:54:07;;;;;;;0.10;0.10;;;;;;;;;;6145015;23;20091;-86
2023/01/01 04:56:34;;;;;;;0.32;0.32;;;;;;;;;;6173109;23;20024;-86
2023/01/01 04:59:00;;;;;;;0.10;0.10;;;;;;;;;;6146959;23;20091;-87
2023/01/01 05:01:27;;;;;;;0.15;0.15;;;;;;;;;;6173785;23;20209;-86
2023/01/01 05:03:54;;;;;;;0.10;0.10;;;;;;;;;;6152034;23;20021;-87
2023/01/01 05:06:20;;;;;;;0.63;0.63;;;;;;;;;;6175514;23;20021;-84
2023/01/01 05:08:48;;;;;;;0.50;0.50;;;;;;;;;;6172358;23;20021;-84
2023/01/01 05:11:17;;;;;;;0.38;0.38;;;;;;;;;;6153610;23;20016;-87
2023/01/01 05:13:44;;;;;;;0.00;0.00;;;;;;;;;;6150541;23;20121;-87
2023/01/01 05:16:11;;;;;;;0.10;0.10;;;;;;;;;;6145796;23;20048;-85
2023/01/01 05:18:37;;;;;;;0.22;0.22;;;;;;;;;;6169527;23;20392;-87
2023/01/01 05:21:05;;;;;;;0.20;0.20;;;;;;;;;;6145062;23;20068;-87
2023/01/01 05:23:31;;;;;;;0.10;0.10;;;;;;;;;;6144152;23;20083;-85
2023/01/01 05:25:58;;;;;;;0.10;0.10;;;;;;;;;;6171194;23;20478;-86
2023/01/01 05:28:24;;;;;;;0.10;0.10;;;;;;;;;;6169691;23;20021;-87
2023/01/01 05:30:51;;;;;;;0.10;0.10;;;;;;;;;;6144900;23;20025;-88
2023/01/01 05:33:17;;;;;;;0.10;0.10;;;;;;;;;;6169708;23;20069;-87
2023/01/01 05:35:43;;;;;;;0.10;0.10;;;;;;;;;;6144896;23;20020;-88
2023/01/01 05:38:09;;;;;;;0.20;0.20;;;;;;;;;;6168577;23;20112;-85
2023/01/01 05:40:38;;;;;;;0.10;0.10;;;;;;;;;;6144638;23;20423;-87
2023/01/01 05:43:06;;;;;;;0.10;0.10;;;;;;;;;;6167210;23;20021;-86
2023/01/01 05:45:32;;;;;;;0.10;0.10;;;;;;;;;;6118812;23;20107;-87
2023/01/01 05:47:58;;;;;;;0.10;0.10;;;;;;;;;;6120069;23;20017;-86
2023/01/01 05:50:24;;;;;;;0.10;0.10;;;;;;;;;;6119513;23;20021;-86
2023/01/01 05:52:50;;;;;;;0.10;0.10;;;;;;;;;;6144725;23;20027;-86
2023/01/01 05:55:16;;;;;;;0.10;0.10;;;;;;;;;;6116900;23;20044;-89
2023/01/01 05:57:42;;;;;;;0.20;0.20;;;;;;;;;;6144661;23;20456;-87
2023/01/01 06:00:09;;;;;;;1.55;0.85;;;;;;;;;;6142905;23;20020;-87
2023/01/01 06:02:35;;;;;;;0.00;0.00;;;;;;;;;;6119963;23;20079;-85
2023/01/01 06:05:01;;;;;;;0.10;0.10;;;;;;;;;;6143705;23;20025;-88
2023/01/01 06:07:30;;;;;;;3.63;1.40;;;;;;;;;;6120074;23;20021;-87
2023/01/01 06:09:56;;;;;;;0.10;0.10;;;;;;;;;;6143828;23;20448;-87
2023/01/01 06:12:22;;;;;;;1.25;1.20;;;;;;;;;;6143943;23;20452;-86
2023/01/01 06:14:49;;;;;;;0.63;0.63;;;;;;;;;;6118384;23;20440;-87
2023/01/01 06:17:15;;;;;;;0.10;0.10;;;;;;;;;;6143741;23;20024;-88
2023/01/01 06:19:41;;;;;;;0.10;0.10;;;;;;;;;;6118477;23;20043;-88
2023/01/01 06:22:07;;;;;;;0.10;0.10;;;;;;;;;;6119457;23;20083;-87
2023/01/01 06:24:33;;;;;;;0.10;0.10;;;;;;;;;;6143804;23;20017;-88
2023/01/01 06:26:59;;;;;;;0.10;0.10;;;;;;;;;;6119403;23;20052;-87
2023/01/01 06:29:25;;;;;;;0.10;0.10;;;;;;;;;;6141964;23;20024;-86
2023/01/01 06:31:51;;;;;;;0.10;0.10;;;;;;;;;;6119943;23;20021;-85
2023/01/01 06:34:17;;;;;;;0.10;0.10;;;;;;;;;;6142377;23;20124;-87
2023/01/01 06:36:43;;;;;;;0.10;0.10;;;;;;;;;;6143249;23;20103;-87
2023/01/01 06:39:09;;;;;;;0.10;0.10;;;;;;;;;;6143572;23;20032;-87
2023/01/01 06:41:36;;;;;;;0.10;0.10;;;;;;;;;;6141746;23;20029;-87
2023/01/01 06:44:02;;;;;;;0.10;0.10;;;;;;;;;;6129840;23;20052;-86
2023/01/01 06:46:28;;;;;;;0.10;0.10;;;;;;;;;;6168817;23;20021;-87
2023/01/01 06:48:58;;;;;;;0.10;0.10;;;;;;;;;;6143056;23;20020;-85
2023/01/01 06:51:26;;;;;;;0.00;0.00;;;;;;;;;;6168384;23;20124;-87
2023/01/01 06:53:52;;;;;;;0.10;0.10;;;;;;;;;;6167315;23;20514;-84
2023/01/01 06:56:19;;;;;;;0.10;0.10;;;;;;;;;;6166216;23;20028;-88
2023/01/01 06:58:45;;;;;;;0.20;0.20;;;;;;;;;;6167200;23;20361;-86
2023/01/01 07:01:12;;;;;;;0.10;0.10;;;;;;;;;;6142538;23;20072;-86
2023/01/01 07:03:40;;;;;;;0.10;0.10;;;;;;;;;;6142534;23;20048;-87
2023/01/01 07:06:07;;;;;;;0.10;0.10;;;;;;;;;;6166388;23;20013;-87
2023/01/01 07:08:34;;;;;;;4.30;1.15;;;;;;;;;;6168741;23;20017;-86
2023/01/01 07:11:01;;;;;;;0.10;0.10;;;;;;;;;;6143021;23;20021;-84
2023/01/01 07:13:27;;;;;;;0.10;0.10;;;;;;;;;;6169387;23;20025;-85
2023/01/01 07:15:55;;;;;;;0.10;0.10;;;;;;;;;;6168972;23;20016;-86
2023/01/01 07:18:22;;;;;;;0.10;0.10;;;;;;;;;;6144385;23;20096;-84
2023/01/01 07:20:49;;;;;;;0.10;0.10;;;;;;;;;;6168522;23;20016;-86
2023/01/01 07:23:15;;;;;;;0.10;0.10;;;;;;;;;;6167836;23;20071;-87
2023/01/01 07:25:41;;;;;;;0.10;0.10;;;;;;;;;;6143599;23;20013;-87
2023/01/01 07:28:08;;;;;;;0.10;0.10;;;;;;;;;;6168027;23;20468;-87
2023/01/01 07:30:34;;;;;;;0.70;0.70;;;;;;;;;;6144243;23;20072;-85
2023/01/01 07:33:00;;;;;;;0.10;0.10;;;;;;;;;;6145505;23;20023;-85
2023/01/01 07:35:26;;;;;;;0.10;0.10;;;;;;;;;;6145889;23;20459;-86
2023/01/01 07:37:52;;;;;;;0.10;0.10;;;;;;;;;;6171537;23;20072;-86
2023/01/01 07:40:18;;;;;;;0.10;0.10;;;;;;;;;;6145171;23;20016;-86
2023/01/01 07:42:44;;;;;;;0.10;0.10;;;;;;;;;;6143942;23;20016;-86
2023/01/01 07:45:13;;;;;;;0.10;0.10;;;;;;;;;;6118897;23;20021;-86
2023/01/01 07:47:39;;;;;;;0.10;0.10;;;;;;;;;;6145390;23;20017;-85
2023/01/01 07:50:14;;;;;;;0.10;0.10;;;;;;;;;;6122793;23;20178;-86
2023/01/01 07:52:40;;;;;;;0.85;0.85;;;;;;;;;;6121783;23;20348;-86
2023/01/01 07:55:07;;;;;;;0.20;0.20;;;;;;;;;;6121648;23;20388;-85
2023/01/01 07:57:33;;;;;;;30.38;1.70;;;;;;;;;;6120293;23;20192;-85
2023/01/01 07:59:59;;;;;;;0.10;0.10;;;;;;;;;;6118642;23;20282;-87
2023/01/01 08:02:25;;;;;;;1.27;0.40;;;;;;;;;;6121572;23;20348;-87
2023/01/01 08:04:51;;;;;;;0.10;0.10;;;;;;;;;;6122512;23;20413;-85
2023/01/01 08:07:17;;;;;;;0.10;0.10;;;;;;;;;;6147569;23;20353;-86
2023/01/01 08:09:43;;;;;;;4.63;1.58;;;;;;;;;;6146393;23;20100;-86
2023/01/01 08:12:09;;;;;;;0.10;0.10;;;;;;;;;;6119584;23;20079;-85
2023/01/01 08:14:35;;;;;;;0.10;0.10;;;;;;;;;;6121200;23;20021;-86
2023/01/01 08:17:01;;;;;;;0.13;0.13;;;;;;;;;;6121997;23;20051;-87
2023/01/01 08:19:27;;;;;;;0.10;0.10;;;;;;;;;;6122940;23;20177;-86
2023/01/01 08:21:53;;;;;;;0.10;0.10;;;;;;;;;;6120775;23;20020;-87
2023/01/01 08:24:19;;;;;;;0.10;0.10;;;;;;;;;;6145084;23;20017;-86
2023/01/01 08:26:48;;;;;;;0.10;0.10;;;;;;;;;;6121385;23;20032;-86
2023/01/01 08:29:14;;;;;;;0.10;0.10;;;;;;;;;;6121078;23;20044;-80
2023/01/01 08:31:40;;;;;;;0.10;0.10;;;;;;;;;;6119239;23;20017;-87
2023/01/01 08:34:06;;;;;;;0.10;0.10;;;;;;;;;;6119303;23;20017;-85
2023/01/01 08:36:32;;;;;;;0.10;0.10;;;;;;;;;;6143490;23;20045;-84
2023/01/01 08:38:58;;;;;;;0.10;0.10;;;;;;;;;;6119500;23;20053;-86
2023/01/01 08:41:24;;;;;;;0.10;0.10;;;;;;;;;;6119196;23;20096;-85
2023/01/01 08:43:51;;;;;;;0.20;0.20;;;;;;;;;;6127372;23;20052;-85
2023/01/01 08:46:18;;;;;;;0.10;0.10;;;;;;;;;;6144194;23;20131;-85
2023/01/01 08:48:44;;;;;;;0.20;0.20;;;;;;;;;;6169257;23;20460;-85
2023/01/01 08:51:10;;;;;;;0.10;0.10;;;;;;;;;;6144580;23;20017;-85
2023/01/01 08:53:36;;;;;;;0.10;0.10;;;;;;;;;;6168145;23;20024;-85
2023/01/01 08:56:04;;;;;;;0.10;0.10;;;;;;;;;;6144437;23;20411;-85
2023/01/01 08:58:31;;;;;;;0.10;0.10;;;;;;;;;;6166537;23;20080;-85
2023/01/01 09:00:58;;;;;;;0.10;0.10;;;;;;;;;;6168148;23;20013;-86
2023/01/01 09:03:24;;;;;;;1.67;1.38;;;;;;;;;;6143411;23;20094;-88
2023/01/01 09:05:50;;;;;;;0.10;0.10;;;;;;;;;;6145093;23;20463;-88
2023/01/01 09:08:17;;;;;;;0.10;0.10;;;;;;;;;;6168931;23;20044;-86
2023/01/01 09:10:43;;;;;;;0.10;0.10;;;;;;;;;;6144977;23;20021;-88
2023/01/01 09:13:09;;;;;;;0.00;0.00;;;;;;;;;;6143551;23;20104;-88
2023/01/01 09:15:36;;;;;;;0.10;0.10;;;;;;;;;;6146176;23;20021;-87
2023/01/01 09:18:02;;;;;;;0.10;0.10;;;;;;;;;;6143885;23;20017;-84
2023/01/01 09:20:28;;;;;;;0.57;0.57;;;;;;;;;;6167911;23;20916;-85
2023/01/01 09:22:54;;;;;;;0.13;0.13;;;;;;;;;;6143471;23;20522;-87
2023/01/01 09:25:20;;;;;;;2.10;2.00;;;;;;;;;;6144824;23;20478;-88
2023/01/01 09:27:46;;;;;;;0.10;0.10;;;;;;;;;;6169452;23;20032;-86
2023/01/01 09:30:12;;;;;;;0.10;0.10;;;;;;;;;;6168172;23;20021;-87
2023/01/01 09:32:38;;;;;;;0.17;0.17;;;;;;;;;;6168922;23;20422;-84
2023/01/01 09:35:05;;;;;;;0.10;0.10;;;;;;;;;;6169933;23;20024;-86
2023/01/01 09:37:31;;;;;;;0.10;0.10;;;;;;;;;;6146198;23;20020;-86
2023/01/01 09:39:57;;;;;;;0.10;0.10;;;;;;;;;;6168420;23;20092;-85
2023/01/01 09:42:33;;;;;;;0.10;0.10;;;;;;;;;;6168568;23;20094;-85
2023/01/01 09:45:08;;;;;;;0.10;0.10;;;;;;;;;;6145651;23;20021;-86
2023/01/01 09:47:36;;;;;;;0.10;0.10;;;;;;;;;;6169885;23;20136;-85
2023/01/01 09:50:08;;;;;;;0.10;0.10;;;;;;;;;;6169457;23;20115;-86
2023/01/01 09:52:48;;;;;;;0.10;0.10;;;;;;;;;;6167892;23;20392;-87
2023/01/01 09:55:28;;;;;;;0.10;0.10;;;;;;;;;;6144541;23;20025;-87
2023/01/01 09:57:57;;;;;;;1.58;1.48;;;;;;;;;;6171791;23;20017;-85
2023/01/01 10:00:24;;;;;;;0.10;0.10;;;;;;;;;;6145259;23;20028;-88
2023/01/01 10:03:08;;;;;;;0.10;0.10;;;;;;;;;;6141706;23;20035;-81
2023/01/01 10:05:53;;;;;;;0.38;0.38;;;;;;;;;;6169916;23;20118;-82
2023/01/01 10:08:35;;;;;;;0.10;0.10;;;;;;;;;;6144187;23;20250;-82
2023/01/01 10:11:27;;;;;;;0.10;0.10;;;;;;;;;;6144216;23;20382;-83
2023/01/01 10:13:54;;;;;;;0.20;0.20;;;;;;;;;;6124800;23;20032;-82
2023/01/01 10:16:20;;;;;;;0.13;0.13;;;;;;;;;;6169811;23;20031;-81
2023/01/01 10:18:48;;;;;;;2.85;2.65;;;;;;;;;;6170381;23;20025;-82
2023/01/01 10:21:17;;;;;;;0.17;0.17;;;;;;;;;;6145336;23;20056;-82
2023/01/01 10:24:03;;;;;;;0.10;0.10;;;;;;;;;;6168994;23;20028;-83
2023/01/01 10:26:30;;;;;;;0.10;0.10;;;;;;;;;;6086011;23;20025;-82
2023/01/01 10:29:14;;;;;;;0.10;0.10;;;;;;;;;;6170537;23;20013;-83
2023/01/01 10:31:46;;;;;;;0.10;0.10;;;;;;;;;;6169472;23;20051;-83
2023/01/01 10:34:17;;;;;;;0.10;0.10;;;;;;;;;;6168544;23;20020;-82
2023/01/01 10:36:43;;;;;;;1.00;0.75;;;;;;;;;;6169510;23;20025;-83
2023/01/01 10:39:14;;;;;;;0.10;0.10;;;;;;;;;;6170363;23;20344;-82
2023/01/01 10:41:40;;;;;;;0.10;0.10;;;;;;;;;;6169047;23;20456;-83
2023/01/01 10:44:07;;;;;;;0.10;0.10;;;;;;;;;;6170473;23;20025;-82
2023/01/01 10:46:35;;;;;;;0.10;0.10;;;;;;;;;;6167673;23;20520;-80
2023/01/01 10:49:05;;;;;;;0.10;0.10;;;;;;;;;;6169877;23;20063;-83
2023/01/01 10:51:31;;;;;;;0.10;0.10;;;;;;;;;;6125406;23;20481;-87
2023/01/01 10:53:57;;;;;;;0.10;0.10;;;;;;;;;;6169099;23;20013;-82
2023/01/01 10:56:24;;;;;;;1.17;1.17;;;;;;;;;;6119178;23;20021;-82
2023/01/01 10:58:53;;;;;;;0.10;0.10;;;;;;;;;;6119179;23;20528;-82
2023/01/01 11:01:27;;;;;;;0.10;0.10;;;;;;;;;;6142144;23;20017;-81
2023/01/01 11:04:00;;;;;;;1.05;0.98;;;;;;;;;;6144395;23;20027;-82
2023/01/01 11:06:31;;;;;;;0.10;0.10;;;;;;;;;;6144664;23;20100;-81
2023/01/01 11:08:58;;;;;;;0.45;0.45;;;;;;;;;;6143623;23;20024;-81
2023/01/01 11:11:24;;;;;;;0.10;0.10;;;;;;;;;;6119228;23;20248;-81
2023/01/01 11:13:51;;;;;;;0.57;0.55;;;;;;;;;;6143424;23;20540;-83
2023/01/01 11:16:18;;;;;;;0.15;0.15;;;;;;;;;;6117388;23;20471;-81
2023/01/01 11:18:44;;;;;;;0.10;0.10;;;;;;;;;;6142827;23;20013;-82
2023/01/01 11:21:10;;;;;;;0.10;0.10;;;;;;;;;;6142319;23;20020;-82
2023/01/01 11:23:39;;;;;;;0.10;0.10;;;;;;;;;;6142166;23;20029;-82
2023/01/01 11:26:25;;;;;;;0.10;0.10;;;;;;;;;;6119352;23;20025;-81
2023/01/01 11:28:59;;;;;;;0.10;0.10;;;;;;;;;;6142484;23;20057;-82
2023/01/01 11:31:27;;;;;;;0.20;0.20;;;;;;;;;;6141660;23;20021;-82
2023/01/01 11:33:54;;;;;;;0.10;0.10;;;;;;;;;;6141242;23;20128;-81
2023/01/01 11:36:25;;;;;;;0.10;0.10;;;;;;;;;;6118443;23;20767;-81
2023/01/01 11:39:03;;;;;;;0.10;0.10;;;;;;;;;;6143014;23;20025;-81
2023/01/01 11:41:39;;;;;;;0.43;0.43;;;;;;;;;;6142404;23;20025;-80
2023/01/01 11:44:05;;;;;;;0.00;0.00;;;;;;;;;;6149228;23;20074;-82
2023/01/01 11:46:32;;;;;;;0.10;0.10;;;;;;;;;;6141351;23;20021;-83
2023/01/01 11:48:58;;;;;;;0.30;0.30;;;;;;;;;;6142551;23;20024;-86
2023/01/01 11:51:28;;;;;;;0.10;0.10;;;;;;;;;;6141727;23;20406;-83
2023/01/01 11:54:07;;;;;;;0.10;0.10;;;;;;;;;;6141726;23;20025;-83
2023/01/01 11:56:33;;;;;;;0.08;0.08;;;;;;;;;;6166043;23;20025;-89
2023/01/01 11:59:03;;;;;;;0.10;0.10;;;;;;;;;;6166901;23;20515;-83
2023/01/01 12:01:46;;;;;;;0.10;0.10;;;;;;;;;;6165449;23;20186;-81
2023/01/01 12:04:37;;;;;;;3.30;1.95;;;;;;;;;;6167779;23;20412;-81
2023/01/01 12:07:08;;;;;;;0.10;0.10;;;;;;;;;;6166988;23;20017;-82
2023/01/01 12:09:40;;;;;;;0.10;0.10;;;;;;;;;;6167870;23;20076;-84
2023/01/01 12:12:10;;;;;;;0.10;0.10;;;;;;;;;;6142644;23;20029;-85
2023/01/01 12:14:48;;;;;;;0.10;0.10;;;;;;;;;;6168339;23;20115;-85
2023/01/01 12:17:22;;;;;;;0.10;0.10;;;;;;;;;;6169827;23;20028;-86
2023/01/01 12:20:08;;;;;;;0.10;0.10;;;;;;;;;;6146720;23;20449;-85
2023/01/01 12:22:34;;;;;;;0.10;0.10;;;;;;;;;;6149265;23;20019;-84
2023/01/01 12:25:00;;;;;;;0.10;0.10;;;;;;;;;;6182879;23;20021;-84
2023/01/01 12:27:45;;;;;;;0.10;0.10;;;;;;;;;;6163921;23;20064;-86
2023/01/01 12:30:22;;;;;;;0.10;0.10;;;;;;;;;;6148003;23;20542;-83
2023/01/01 12:32:58;;;;;;;0.10;0.10;;;;;;;;;;6151118;23;20040;-82
2023/01/01 12:35:39;;;;;;;0.10;0.10;;;;;;;;;;6155197;23;20102;-82
2023/01/01 12:38:19;;;;;;;0.15;0.15;;;;;;;;;;6142572;23;20567;-81
2023/01/01 12:40:46;;;;;;;0.10;0.10;;;;;;;;;;6168408;23;20021;-81
2023/01/01 12:43:26;;;;;;;0.10;0.10;;;;;;;;;;6146045;23;20017;-82
2023/01/01 12:46:19;;;;;;;2.15;2.05;;;;;;;;;;6172839;23;20024;-81
2023/01/01 12:48:51;;;;;;;0.60;0.60;;;;;;;;;;6169004;23;20020;-81
2023/01/01 12:51:27;;;;;;;0.10;0.10;;;;;;;;;;6171482;23;20478;-84
2023/01/01 12:53:59;;;;;;;0.20;0.20;;;;;;;;;;6198160;23;20067;-81
2023/01/01 12:56:46;;;;;;;0.35;0.35;;;;;;;;;;6172716;23;20025;-82
2023/01/01 12:59:18;;;;;;;0.10;0.10;;;;;;;;;;6146810;23;20528;-81
2023/01/01 13:01:45;;;;;;;0.22;0.22;;;;;;;;;;6172373;23;20016;-81
2023/01/01 13:04:13;;;;;;;2.83;1.13;;;;;;;;;;6172353;23;20320;-81
2023/01/01 13:06:42;;;;;;;0.47;0.47;;;;;;;;;;6171059;23;20141;-81
2023/01/01 13:09:14;;;;;;;0.10;0.10;;;;;;;;;;6171795;23;20019;-81
2023/01/01 13:11:40;;;;;;;0.10;0.10;;;;;;;;;;6173104;23;20023;-81
2023/01/01 13:14:07;;;;;;;0.13;0.13;;;;;;;;;;6170730;23;20017;-81
2023/01/01 13:16:34;;;;;;;0.50;0.50;;;;;;;;;;6168907;23;20432;-80
2023/01/01 13:19:00;;;;;;;0.10;0.10;;;;;;;;;;6172122;23;20517;-81
2023/01/01 13:21:28;;;;;;;0.10;0.10;;;;;;;;;;6171709;23;20052;-80
2023/01/01 13:23:57;;;;;;;0.10;0.10;;;;;;;;;;6171706;23;20072;-81
2023/01/01 13:26:26;;;;;;;0.10;0.10;;;;;;;;;;6171714;23;20537;-81
2023/01/01 13:28:55;;;;;;;0.10;0.10;;;;;;;;;;6173502;23;20442;-81
2023/01/01 13:31:42;;;;;;;0.10;0.10;;;;;;;;;;6173191;23;20056;-81
2023/01/01 13:34:27;;;;;;;0.20;0.20;;;;;;;;;;6156139;23;20822;-82
2023/01/01 13:37:13;;;;;;;1.08;1.08;;;;;;;;;;6171430;23;20376;-81
2023/01/01 13:39:57;;;;;;;0.13;0.13;;;;;;;;;;6172864;23;20550;-81
2023/01/01 13:43:01;;;;;;;0.10;0.10;;;;;;;;;;6172320;23;20417;-80
2023/01/01 13:45:33;;;;;;;0.10;0.10;;;;;;;;;;6076708;23;20065;-83
2023/01/01 13:48:27;;;;;;;0.10;0.10;;;;;;;;;;6153228;23;20035;-80
2023/01/01 13:50:59;;;;;;;0.10;0.10;;;;;;;;;;6173381;23;20284;-81
2023/01/01 13:53:46;;;;;;;1.65;1.55;;;;;;;;;;6173139;23;20055;-80
2023/01/01 13:56:31;;;;;;;0.10;0.10;;;;;;;;;;6173050;23;20016;-79
2023/01/01 13:59:00;;;;;;;0.10;0.10;;;;;;;;;;6172122;23;20020;-79
2023/01/01 14:01:26;;;;;;;0.00;0.00;;;;;;;;;;6172826;23;20078;-81
2023/01/01 14:03:53;;;;;;;0.10;0.10;;;;;;;;;;6173368;23;20021;-80
2023/01/01 14:06:27;;;;;;;1.77;0.95;;;;;;;;;;6197744;23;20333;-81
2023/01/01 14:09:20;;;;;;;0.10;0.10;;;;;;;;;;6172779;23;20024;-80
2023/01/01 14:11:46;;;;;;;0.10;0.10;;;;;;;;;;6168985;23;20027;-80
2023/01/01 14:14:23;;;;;;;0.22;0.22;;;;;;;;;;6173875;23;20096;-81
2023/01/01 14:16:52;;;;;;;0.10;0.10;;;;;;;;;;6197558;23;20347;-81
2023/01/01 14:19:18;;;;;;;0.50;0.50;;;;;;;;;;6199071;23;20644;-81
2023/01/01 14:21:45;;;;;;;0.10;0.10;;;;;;;;;;6198986;23;20019;-81
2023/01/01 14:24:14;;;;;;;0.10;0.10;;;;;;;;;;6197693;23;20425;-80
2023/01/01 14:26:40;;;;;;;0.10;0.10;;;;;;;;;;6198214;23;20016;-81
2023/01/01 14:29:07;;;;;;;0.10;0.10;;;;;;;;;;6199837;23;20551;-80
2023/01/01 14:31:41;;;;;;;0.10;0.10;;;;;;;;;;6173253;23;20099;-80
2023/01/01 14:34:07;;;;;;;;;;;;;;;;;;6172713;23;20522;-80
2023/01/01 14:36:33;;;;;;;0.10;0.10;;;;;;;;;;6169086;23;19919;-82
2023/01/01 14:39:00;;;;;;;0.10;0.10;;;;;;;;;;6172578;23;20091;-79
2023/01/01 14:41:36;;;;;;;0.10;0.10;;;;;;;;;;6172252;23;20475;-81
2023/01/01 14:44:14;;;;;;;0.10;0.10;;;;;;;;;;6172006;23;20509;-85
2023/01/01 14:46:43;;;;;;;0.35;0.35;;;;;;;;;;6171320;23;20032;-77
2023/01/01 14:49:10;;;;;;;0.10;0.10;;;;;;;;;;6170750;23;20040;-84
2023/01/01 14:51:36;;;;;;;1.17;1.15;;;;;;;;;;6198803;23;20103;-84
2023/01/01 14:54:04;;;;;;;0.10;0.10;;;;;;;;;;6172944;23;20028;-87
2023/01/01 14:56:35;;;;;;;0.10;0.10;;;;;;;;;;6174306;23;20024;-88
2023/01/01 14:59:07;;;;;;;0.10;0.10;;;;;;;;;;6169548;23;20028;-83
2023/01/01 15:01:35;;;;;;;0.10;0.10;;;;;;;;;;6172038;23;20024;-83
2023/01/01 15:04:03;;;;;;;0.10;0.10;;;;;;;;;;6171964;23;20013;-82